createdAt,value
2022-10-08T00:00:54.628Z,11.21
2022-10-08T00:03:22.636Z,11.23
2022-10-08T00:06:02.452Z,11.15
2022-10-08T00:08:31.641Z,11.12
2022-10-08T00:11:04.588Z,11.09
2022-10-08T00:13:40.731Z,11.02
2022-10-08T00:16:32.061Z,11.10
2022-10-08T00:19:01.285Z,11.08
2022-10-08T00:21:34.224Z,11.06
2022-10-08T00:24:01.500Z,11.13
2022-10-08T00:26:29.884Z,11.08
2022-10-08T00:28:58.396Z,11.02
2022-10-08T00:31:27.945Z,10.92
2022-10-08T00:33:56.637Z,11.03
2022-10-08T00:36:25.540Z,10.81
2022-10-08T00:38:57.060Z,10.88
2022-10-08T00:41:26.091Z,10.86
2022-10-08T00:43:58.280Z,10.89
2022-10-08T00:46:36.328Z,10.88
2022-10-08T00:49:06.763Z,10.74
2022-10-08T00:51:33.876Z,10.87
2022-10-08T00:54:02.315Z,10.93
2022-10-08T00:56:31.395Z,10.84
2022-10-08T00:58:57.865Z,10.60
2022-10-08T01:01:24.477Z,10.63
2022-10-08T01:03:50.853Z,10.61
2022-10-08T01:06:29.173Z,10.75
2022-10-08T01:09:06.550Z,10.71
2022-10-08T01:11:47.620Z,10.68
2022-10-08T01:14:48.575Z,10.58
2022-10-08T01:17:48.911Z,10.49
2022-10-08T01:20:18.279Z,10.59
2022-10-08T01:23:14.441Z,10.44
2022-10-08T01:26:01.989Z,10.57
2022-10-08T01:28:34.619Z,10.50
2022-10-08T01:31:09.135Z,10.53
2022-10-08T01:34:00.248Z,10.50
2022-10-08T01:36:31.953Z,10.46
2022-10-08T01:39:03.931Z,10.18
2022-10-08T01:41:33.082Z,10.08
2022-10-08T01:44:05.388Z,10.31
2022-10-08T01:46:34.176Z,10.34
2022-10-08T01:49:07.770Z,10.29
2022-10-08T01:51:45.028Z,10.33
2022-10-08T01:54:16.224Z,10.30
2022-10-08T01:56:46.202Z,10.33
2022-10-08T01:59:22.899Z,10.34
2022-10-08T02:01:58.318Z,10.38
2022-10-08T02:04:33.105Z,10.33
2022-10-08T02:07:03.532Z,10.40
2022-10-08T02:09:33.232Z,10.43
2022-10-08T02:11:59.610Z,10.46
2022-10-08T02:14:28.496Z,10.46
2022-10-08T02:17:37.556Z,10.47
2022-10-08T02:20:34.469Z,10.60
2022-10-08T02:23:22.527Z,10.54
2022-10-08T02:26:14.827Z,10.54
2022-10-08T02:28:49.276Z,10.62
2022-10-08T02:31:34.629Z,10.50
2022-10-08T02:34:26.595Z,10.47
2022-10-08T02:37:15.023Z,10.57
2022-10-08T02:39:47.131Z,10.47
2022-10-08T02:42:18.351Z,10.57
2022-10-08T02:44:50.415Z,10.64
2022-10-08T02:47:21.500Z,10.63
2022-10-08T02:49:56.249Z,10.62
2022-10-08T02:52:27.119Z,10.68
2022-10-08T02:54:54.931Z,10.75
2022-10-08T02:57:44.612Z,10.74
2022-10-08T03:00:11.791Z,10.84
2022-10-08T03:02:45.837Z,10.84
2022-10-08T03:05:17.755Z,10.82
2022-10-08T03:07:44.968Z,10.75
2022-10-08T03:10:12.782Z,10.80
2022-10-08T03:12:39.163Z,10.79
2022-10-08T03:15:06.663Z,10.79
2022-10-08T03:17:37.722Z,10.91
2022-10-08T03:20:06.175Z,10.86
2022-10-08T03:22:33.946Z,10.79
2022-10-08T03:25:00.780Z,10.80
2022-10-08T03:27:27.291Z,10.82
2022-10-08T03:29:57.155Z,10.81
2022-10-08T03:32:24.670Z,10.85
2022-10-08T03:34:51.406Z,10.78
2022-10-08T03:37:18.212Z,10.86
2022-10-08T03:39:44.723Z,10.88
2022-10-08T03:42:11.565Z,10.90
2022-10-08T03:44:38.263Z,10.82
2022-10-08T03:47:04.680Z,10.85
2022-10-08T03:49:31.377Z,10.89
2022-10-08T03:51:57.734Z,10.84
2022-10-08T03:54:24.293Z,10.86
2022-10-08T03:56:50.616Z,10.94
2022-10-08T03:59:17.141Z,10.85
2022-10-08T04:01:43.655Z,10.93
2022-10-08T04:04:10.077Z,10.88
2022-10-08T04:06:36.487Z,10.80
2022-10-08T04:09:03.044Z,10.86
2022-10-08T04:11:29.451Z,10.86
2022-10-08T04:13:55.912Z,10.92
2022-10-08T04:16:22.209Z,10.91
2022-10-08T04:18:48.936Z,10.90
2022-10-08T04:21:17.678Z,10.87
2022-10-08T04:23:44.597Z,10.90
2022-10-08T04:26:13.335Z,10.87
2022-10-08T04:28:41.500Z,10.80
2022-10-08T04:31:11.401Z,10.86
2022-10-08T04:33:38.025Z,10.84
2022-10-08T04:36:08.579Z,10.94
2022-10-08T04:38:34.933Z,10.81
2022-10-08T04:41:23.212Z,10.82
2022-10-08T04:43:50.633Z,10.76
2022-10-08T04:46:20.003Z,10.78
2022-10-08T04:48:51.914Z,10.87
2022-10-08T04:51:19.506Z,10.76
2022-10-08T04:53:46.539Z,10.77
2022-10-08T04:56:15.758Z,10.79
2022-10-08T04:58:42.155Z,10.82
2022-10-08T05:01:11.253Z,10.78
2022-10-08T05:03:43.909Z,10.85
2022-10-08T05:06:11.326Z,10.88
2022-10-08T05:08:37.997Z,10.94
2022-10-08T05:11:04.981Z,10.80
2022-10-08T05:13:31.337Z,10.82
2022-10-08T05:16:06.200Z,10.81
2022-10-08T05:18:33.619Z,10.83
2022-10-08T05:21:10.863Z,10.96
2022-10-08T05:23:38.238Z,10.78
2022-10-08T05:26:16.535Z,10.82
2022-10-08T05:28:44.983Z,10.88
2022-10-08T05:31:11.459Z,10.87
2022-10-08T05:33:38.397Z,10.87
2022-10-08T05:36:06.964Z,10.82
2022-10-08T05:38:35.164Z,10.84
2022-10-08T05:41:16.864Z,10.80
2022-10-08T05:43:43.964Z,10.75
2022-10-08T05:46:11.210Z,10.74
2022-10-08T05:48:38.980Z,10.70
2022-10-08T05:51:13.544Z,10.73
2022-10-08T05:53:42.964Z,10.72
2022-10-08T05:56:11.461Z,10.67
2022-10-08T05:58:39.683Z,10.62
2022-10-08T06:01:09.680Z,10.62
2022-10-08T06:03:36.043Z,10.71
2022-10-08T06:06:05.245Z,10.70
2022-10-08T06:08:31.877Z,10.70
2022-10-08T06:10:58.309Z,10.67
2022-10-08T06:13:24.954Z,10.70
2022-10-08T06:15:59.876Z,10.68
2022-10-08T06:18:28.031Z,10.68
2022-10-08T06:20:54.427Z,10.67
2022-10-08T06:23:21.585Z,10.70
2022-10-08T06:25:48.000Z,10.63
2022-10-08T06:28:14.437Z,10.61
2022-10-08T06:30:41.633Z,10.64
2022-10-08T06:33:11.189Z,10.62
2022-10-08T06:35:38.092Z,10.60
2022-10-08T06:38:05.239Z,10.56
2022-10-08T06:40:33.247Z,10.54
2022-10-08T06:42:59.686Z,10.63
2022-10-08T06:45:26.241Z,10.65
2022-10-08T06:47:52.604Z,10.61
2022-10-08T06:50:18.992Z,10.64
2022-10-08T06:52:45.897Z,10.62
2022-10-08T06:55:12.479Z,10.63
2022-10-08T06:57:38.792Z,10.76
2022-10-08T07:00:05.782Z,10.78
2022-10-08T07:02:32.314Z,10.82
2022-10-08T07:04:58.914Z,10.86
2022-10-08T07:07:25.235Z,10.90
2022-10-08T07:09:51.661Z,10.95
2022-10-08T07:12:17.984Z,10.98
2022-10-08T07:14:44.778Z,10.98
2022-10-08T07:17:11.154Z,11.01
2022-10-08T07:19:37.516Z,11.06
2022-10-08T07:22:03.839Z,11.14
2022-10-08T07:24:30.339Z,11.14
2022-10-08T07:26:56.657Z,11.17
2022-10-08T07:29:24.634Z,11.22
2022-10-08T07:31:50.973Z,11.27
2022-10-08T07:34:17.812Z,11.33
2022-10-08T07:36:44.144Z,11.42
2022-10-08T07:39:16.285Z,11.45
2022-10-08T07:41:42.721Z,11.52
2022-10-08T07:44:12.043Z,11.54
2022-10-08T07:46:43.554Z,11.59
2022-10-08T07:49:10.036Z,11.53
2022-10-08T07:51:36.468Z,11.43
2022-10-08T07:54:06.227Z,11.44
2022-10-08T07:56:33.356Z,11.46
2022-10-08T07:59:01.360Z,11.58
2022-10-08T08:01:29.955Z,11.62
2022-10-08T08:04:02.192Z,11.67
2022-10-08T08:06:30.168Z,11.74
2022-10-08T08:08:57.076Z,11.84
2022-10-08T08:11:24.827Z,11.88
2022-10-08T08:13:52.228Z,11.99
2022-10-08T08:16:27.078Z,11.97
2022-10-08T08:18:58.736Z,11.94
2022-10-08T08:21:36.329Z,12.00
2022-10-08T08:24:06.316Z,12.01
2022-10-08T08:26:35.756Z,12.12
2022-10-08T08:29:11.752Z,12.19
2022-10-08T08:31:40.535Z,12.17
2022-10-08T08:34:10.013Z,12.24
2022-10-08T08:36:39.372Z,12.34
2022-10-08T08:39:07.529Z,12.33
2022-10-08T08:41:55.605Z,12.43
2022-10-08T08:44:59.640Z,12.57
2022-10-08T08:47:49.546Z,12.71
2022-10-08T08:50:28.164Z,12.86
2022-10-08T08:52:55.708Z,12.87
2022-10-08T08:55:34.255Z,12.80
2022-10-08T08:58:12.742Z,12.61
2022-10-08T09:00:51.907Z,12.63
2022-10-08T09:03:29.872Z,12.57
2022-10-08T09:06:01.758Z,12.49
2022-10-08T09:08:37.199Z,12.50
2022-10-08T09:11:05.383Z,12.61
2022-10-08T09:13:37.128Z,12.65
2022-10-08T09:16:03.828Z,12.66
2022-10-08T09:18:30.241Z,12.70
2022-10-08T09:20:56.664Z,12.80
2022-10-08T09:23:25.441Z,12.87
2022-10-08T09:26:09.974Z,13.07
2022-10-08T09:28:56.217Z,13.06
2022-10-08T09:31:45.035Z,13.05
2022-10-08T09:34:11.332Z,13.06
2022-10-08T09:36:50.731Z,13.15
2022-10-08T09:39:20.032Z,13.10
2022-10-08T09:41:58.360Z,13.18
2022-10-08T09:44:25.217Z,13.21
2022-10-08T09:47:05.708Z,13.30
2022-10-08T09:49:34.785Z,13.31
2022-10-08T09:52:07.197Z,13.24
2022-10-08T09:54:46.803Z,13.33
2022-10-08T09:57:17.079Z,13.38
2022-10-08T09:59:51.600Z,13.39
2022-10-08T10:02:33.597Z,13.46
2022-10-08T10:05:02.161Z,13.57
2022-10-08T10:07:57.955Z,13.66
2022-10-08T10:10:28.989Z,13.61
2022-10-08T10:13:09.481Z,13.65
2022-10-08T10:15:45.428Z,13.82
2022-10-08T10:18:15.933Z,13.89
2022-10-08T10:20:58.643Z,13.95
2022-10-08T10:23:36.541Z,13.97
2022-10-08T10:26:06.737Z,13.91
2022-10-08T10:28:54.823Z,14.06
2022-10-08T10:31:35.011Z,13.96
2022-10-08T10:34:10.626Z,14.00
2022-10-08T10:36:43.775Z,14.28
2022-10-08T10:39:21.918Z,14.32
2022-10-08T10:41:57.583Z,14.55
2022-10-08T10:44:31.311Z,14.44
2022-10-08T10:46:59.957Z,14.45
2022-10-08T10:49:35.040Z,14.34
2022-10-08T10:52:36.513Z,14.28
2022-10-08T10:55:44.730Z,14.70
2022-10-08T10:58:43.973Z,14.28
2022-10-08T11:01:29.459Z,13.76
2022-10-08T11:04:08.280Z,13.05
2022-10-08T11:06:59.234Z,12.75
2022-10-08T11:09:42.056Z,12.51
2022-10-08T11:12:33.316Z,12.14
2022-10-08T11:15:08.929Z,11.80
2022-10-08T11:17:43.803Z,11.72
2022-10-08T11:20:10.284Z,11.66
2022-10-08T11:23:02.267Z,11.67
2022-10-08T11:26:03.019Z,11.91
2022-10-08T11:28:44.036Z,12.42
2022-10-08T11:31:10.442Z,12.53
2022-10-08T11:33:37.728Z,13.40
2022-10-08T11:36:43.197Z,14.67
2022-10-08T11:39:21.547Z,14.32
2022-10-08T11:41:55.021Z,14.87
2022-10-08T11:44:21.919Z,15.04
2022-10-08T11:46:48.272Z,15.28
2022-10-08T11:49:14.527Z,15.77
2022-10-08T11:51:49.997Z,16.01
2022-10-08T11:54:34.256Z,16.33
2022-10-08T11:57:22.667Z,16.44
2022-10-08T11:59:58.872Z,16.61
2022-10-08T12:02:42.871Z,15.40
2022-10-08T12:05:21.613Z,15.62
2022-10-08T12:07:54.095Z,14.85
2022-10-08T12:10:20.367Z,14.68
2022-10-08T12:12:49.871Z,14.89
2022-10-08T12:15:27.541Z,14.55
2022-10-08T12:17:56.789Z,14.56
2022-10-08T12:20:38.067Z,14.36
2022-10-08T12:23:07.239Z,14.33
2022-10-08T12:26:03.013Z,14.79
2022-10-08T12:28:30.003Z,14.44
2022-10-08T12:31:01.924Z,14.16
2022-10-08T12:33:30.179Z,13.83
2022-10-08T12:36:23.378Z,13.56
2022-10-08T12:39:16.050Z,14.59
2022-10-08T12:42:04.062Z,15.83
2022-10-08T12:44:41.824Z,16.32
2022-10-08T12:47:38.227Z,16.29
2022-10-08T12:50:37.506Z,16.33
2022-10-08T12:53:05.476Z,16.62
2022-10-08T12:55:42.577Z,16.04
2022-10-08T12:58:16.320Z,15.73
2022-10-08T13:00:43.889Z,16.16
2022-10-08T13:03:17.424Z,15.66
2022-10-08T13:05:44.853Z,15.42
2022-10-08T13:08:20.801Z,15.85
2022-10-08T13:10:47.173Z,15.59
2022-10-08T13:13:32.216Z,16.33
2022-10-08T13:16:04.075Z,15.85
2022-10-08T13:18:32.839Z,14.84
2022-10-08T13:21:02.344Z,13.89
2022-10-08T13:23:41.776Z,13.15
2022-10-08T13:26:43.271Z,13.22
2022-10-08T13:29:21.939Z,12.69
2022-10-08T13:32:05.074Z,12.90
2022-10-08T13:34:40.527Z,12.45
2022-10-08T13:37:23.277Z,12.58
2022-10-08T13:39:53.061Z,12.54
2022-10-08T13:42:22.016Z,12.62
2022-10-08T13:44:48.612Z,12.74
2022-10-08T13:47:18.166Z,12.65
2022-10-08T13:49:44.953Z,12.76
2022-10-08T13:52:21.233Z,12.59
2022-10-08T13:54:49.208Z,12.78
2022-10-08T13:57:15.863Z,13.49
2022-10-08T13:59:42.241Z,13.42
2022-10-08T14:02:12.394Z,13.42
2022-10-08T14:04:39.247Z,13.18
2022-10-08T14:07:08.744Z,12.76
2022-10-08T14:09:35.130Z,12.63
2022-10-08T14:12:05.085Z,12.60
2022-10-08T14:14:31.768Z,12.86
2022-10-08T14:16:58.158Z,12.59
2022-10-08T14:19:24.514Z,12.75
2022-10-08T14:21:55.075Z,12.52
2022-10-08T14:24:21.446Z,12.73
2022-10-08T14:26:47.808Z,12.48
2022-10-08T14:29:14.160Z,12.61
2022-10-08T14:31:40.584Z,12.99
2022-10-08T14:34:07.354Z,12.86
2022-10-08T14:36:36.860Z,12.64
2022-10-08T14:39:04.612Z,13.08
2022-10-08T14:41:31.911Z,12.91
2022-10-08T14:43:58.917Z,13.29
2022-10-08T14:46:25.407Z,13.30
2022-10-08T14:48:51.754Z,13.32
2022-10-08T14:51:18.151Z,13.14
2022-10-08T14:53:44.460Z,13.30
2022-10-08T14:56:12.951Z,13.15
2022-10-08T14:58:39.651Z,12.63
2022-10-08T15:01:06.388Z,12.89
2022-10-08T15:03:32.767Z,12.96
2022-10-08T15:06:00.521Z,12.98
2022-10-08T15:08:27.530Z,12.77
2022-10-08T15:10:53.947Z,12.95
2022-10-08T15:13:20.276Z,12.75
2022-10-08T15:15:46.637Z,12.86
2022-10-08T15:18:13.036Z,12.92
2022-10-08T15:20:39.575Z,12.87
2022-10-08T15:23:07.296Z,12.99
2022-10-08T15:25:34.978Z,12.91
2022-10-08T15:28:01.396Z,12.69
2022-10-08T15:30:28.369Z,13.00
2022-10-08T15:32:54.747Z,13.07
2022-10-08T15:35:21.211Z,12.96
2022-10-08T15:37:47.537Z,12.75
2022-10-08T15:40:14.131Z,12.52
2022-10-08T15:42:40.517Z,12.27
2022-10-08T15:45:07.615Z,12.42
2022-10-08T15:47:33.974Z,12.33
2022-10-08T15:50:00.399Z,12.41
2022-10-08T15:52:26.715Z,12.36
2022-10-08T15:54:53.145Z,12.08
2022-10-08T15:57:19.578Z,12.32
2022-10-08T15:59:46.052Z,12.43
2022-10-08T16:02:17.106Z,12.41
2022-10-08T16:04:45.777Z,12.07
2022-10-08T16:07:12.091Z,11.85
2022-10-08T16:09:38.451Z,11.52
2022-10-08T16:12:04.835Z,11.55
2022-10-08T16:14:31.238Z,12.01
2022-10-08T16:16:57.885Z,12.05
2022-10-08T16:19:26.567Z,12.04
2022-10-08T16:21:55.239Z,12.13
2022-10-08T16:24:22.081Z,12.39
2022-10-08T16:26:48.824Z,12.38
2022-10-08T16:29:16.865Z,12.02
2022-10-08T16:31:44.644Z,12.02
2022-10-08T16:34:22.413Z,11.91
2022-10-08T16:36:49.689Z,11.88
2022-10-08T16:39:18.658Z,11.80
2022-10-08T16:41:45.646Z,11.78
2022-10-08T16:44:14.486Z,11.86
2022-10-08T16:46:43.417Z,11.70
2022-10-08T16:49:22.825Z,11.39
2022-10-08T16:51:52.791Z,11.59
2022-10-08T16:54:19.666Z,11.17
2022-10-08T16:56:46.442Z,11.14
2022-10-08T16:59:17.441Z,10.49
2022-10-08T17:01:46.126Z,10.32
2022-10-08T17:04:14.184Z,10.09
2022-10-08T17:06:40.679Z,10.07
2022-10-08T17:09:08.102Z,10.08
2022-10-08T17:11:35.293Z,10.45
2022-10-08T17:14:02.448Z,10.46
2022-10-08T17:16:30.569Z,10.49
2022-10-08T17:18:59.352Z,9.88
2022-10-08T17:21:27.199Z,10.11
2022-10-08T17:23:56.533Z,9.65
2022-10-08T17:26:24.589Z,9.55
2022-10-08T17:28:52.060Z,10.13
2022-10-08T17:31:29.277Z,9.57
2022-10-08T17:33:55.825Z,9.36
2022-10-08T17:36:25.772Z,9.43
2022-10-08T17:38:56.185Z,9.41
2022-10-08T17:41:30.963Z,9.60
2022-10-08T17:44:00.212Z,9.76
2022-10-08T17:46:34.678Z,9.36
2022-10-08T17:49:01.419Z,9.56
2022-10-08T17:51:30.202Z,9.48
2022-10-08T17:54:00.556Z,9.91
2022-10-08T17:56:27.825Z,10.28
2022-10-08T17:58:54.743Z,10.40
2022-10-08T18:01:26.607Z,10.26
2022-10-08T18:03:58.313Z,9.68
2022-10-08T18:06:28.006Z,10.24
2022-10-08T18:09:03.141Z,10.08
2022-10-08T18:11:31.644Z,9.51
2022-10-08T18:13:58.322Z,9.59
2022-10-08T18:16:25.576Z,9.73
2022-10-08T18:18:52.296Z,9.90
2022-10-08T18:21:19.861Z,9.96
2022-10-08T18:23:46.932Z,9.96
2022-10-08T18:26:25.076Z,10.16
2022-10-08T18:28:53.839Z,9.67
2022-10-08T18:31:21.758Z,10.13
2022-10-08T18:33:49.816Z,10.12
2022-10-08T18:36:22.374Z,9.98
2022-10-08T18:38:54.443Z,10.15
2022-10-08T18:41:23.508Z,10.08
2022-10-08T18:43:50.129Z,10.36
2022-10-08T18:46:19.030Z,10.34
2022-10-08T18:48:45.573Z,10.19
2022-10-08T18:51:17.914Z,10.21
2022-10-08T18:53:45.678Z,10.45
2022-10-08T18:56:17.828Z,10.04
2022-10-08T18:58:44.932Z,9.62
2022-10-08T19:01:28.768Z,9.78
2022-10-08T19:03:57.750Z,9.89
2022-10-08T19:06:27.174Z,10.25
2022-10-08T19:08:55.205Z,10.29
2022-10-08T19:11:24.305Z,9.84
2022-10-08T19:13:53.006Z,10.04
2022-10-08T19:16:19.866Z,10.11
2022-10-08T19:18:55.658Z,10.06
2022-10-08T19:21:23.679Z,10.26
2022-10-08T19:23:50.183Z,10.05
2022-10-08T19:26:17.046Z,10.04
2022-10-08T19:28:48.572Z,9.92
2022-10-08T19:31:16.454Z,9.95
2022-10-08T19:33:43.035Z,9.98
2022-10-08T19:36:09.578Z,10.03
2022-10-08T19:38:36.123Z,10.06
2022-10-08T19:41:07.161Z,10.15
2022-10-08T19:43:33.721Z,9.67
2022-10-08T19:46:04.901Z,9.33
2022-10-08T19:48:32.592Z,9.44
2022-10-08T19:51:07.329Z,9.65
2022-10-08T19:53:34.811Z,9.94
2022-10-08T19:56:05.752Z,9.95
2022-10-08T19:58:32.136Z,9.80
2022-10-08T20:01:03.462Z,9.57
2022-10-08T20:03:30.034Z,9.85
2022-10-08T20:05:56.521Z,9.83
2022-10-08T20:08:23.097Z,9.73
2022-10-08T20:10:49.417Z,9.83
2022-10-08T20:13:15.893Z,9.69
2022-10-08T20:15:42.251Z,9.75
2022-10-08T20:18:08.679Z,9.44
2022-10-08T20:20:35.005Z,9.55
2022-10-08T20:23:01.360Z,9.56
2022-10-08T20:25:27.687Z,9.63
2022-10-08T20:27:54.138Z,9.57
2022-10-08T20:30:20.462Z,9.63
2022-10-08T20:32:47.067Z,9.71
2022-10-08T20:35:13.680Z,9.70
2022-10-08T20:37:40.095Z,9.71
2022-10-08T20:40:06.579Z,9.62
2022-10-08T20:42:32.928Z,9.72
2022-10-08T20:44:59.234Z,9.56
2022-10-08T20:47:25.855Z,9.56
2022-10-08T20:49:52.196Z,9.25
2022-10-08T20:52:18.711Z,9.36
2022-10-08T20:54:45.033Z,9.36
2022-10-08T20:57:11.388Z,9.18
2022-10-08T20:59:37.713Z,9.23
2022-10-08T21:02:05.696Z,9.47
2022-10-08T21:04:32.126Z,9.40
2022-10-08T21:06:58.489Z,9.38
2022-10-08T21:09:24.942Z,9.34
2022-10-08T21:11:53.482Z,9.32
2022-10-08T21:14:22.367Z,8.94
2022-10-08T21:16:49.561Z,8.93
2022-10-08T21:19:19.162Z,8.83
2022-10-08T21:21:45.748Z,9.00
2022-10-08T21:24:12.066Z,8.54
2022-10-08T21:26:41.306Z,8.32
2022-10-08T21:29:10.883Z,8.24
2022-10-08T21:31:39.456Z,8.27
2022-10-08T21:34:06.635Z,8.26
2022-10-08T21:36:36.704Z,8.20
2022-10-08T21:39:06.553Z,8.35
2022-10-08T21:41:34.493Z,8.27
2022-10-08T21:44:03.343Z,8.24
2022-10-08T21:46:32.133Z,8.11
2022-10-08T21:49:01.611Z,7.99
2022-10-08T21:51:29.481Z,7.96
2022-10-08T21:53:58.772Z,7.92
2022-10-08T21:56:27.999Z,8.29
2022-10-08T21:58:58.053Z,7.87
2022-10-08T22:01:29.095Z,8.08
2022-10-08T22:04:04.348Z,8.67
2022-10-08T22:06:33.190Z,8.40
2022-10-08T22:09:00.192Z,8.06
2022-10-08T22:11:26.900Z,8.15
2022-10-08T22:13:53.224Z,8.01
2022-10-08T22:16:21.854Z,7.91
2022-10-08T22:18:48.892Z,7.74
2022-10-08T22:21:17.682Z,7.70
2022-10-08T22:23:44.351Z,7.73
2022-10-08T22:26:16.682Z,8.14
2022-10-08T22:28:43.729Z,8.01
2022-10-08T22:31:12.449Z,7.61
2022-10-08T22:33:39.068Z,7.78
2022-10-08T22:36:10.925Z,7.74
2022-10-08T22:38:38.895Z,7.60
2022-10-08T22:41:11.240Z,7.44
2022-10-08T22:43:39.358Z,7.78
2022-10-08T22:46:08.221Z,7.72
2022-10-08T22:48:35.162Z,8.02
2022-10-08T22:51:31.096Z,8.07
2022-10-08T22:53:58.116Z,8.11
2022-10-08T22:56:28.166Z,8.11
2022-10-08T22:58:54.667Z,8.07
2022-10-08T23:01:23.359Z,7.98
2022-10-08T23:03:50.080Z,8.04
2022-10-08T23:06:20.507Z,7.98
2022-10-08T23:08:51.470Z,8.01
2022-10-08T23:11:18.163Z,7.69
2022-10-08T23:13:47.392Z,7.66
2022-10-08T23:16:15.129Z,7.57
2022-10-08T23:18:44.382Z,7.50
2022-10-08T23:21:13.798Z,7.42
2022-10-08T23:23:40.449Z,7.51
2022-10-08T23:26:08.276Z,7.49
2022-10-08T23:28:36.193Z,7.41
2022-10-08T23:31:08.082Z,7.33
2022-10-08T23:33:37.840Z,7.16
2022-10-08T23:36:06.680Z,7.36
2022-10-08T23:38:34.168Z,7.23
2022-10-08T23:41:06.363Z,7.51
2022-10-08T23:43:40.969Z,7.40
2022-10-08T23:46:09.144Z,7.11
2022-10-08T23:48:35.800Z,7.12
2022-10-08T23:51:03.465Z,6.97
2022-10-08T23:53:30.964Z,7.13
2022-10-08T23:55:57.372Z,6.95
2022-10-08T23:58:23.735Z,7.09
